createdAt,value
2019-04-27T00:01:10.198Z,18.00
2019-04-27T00:04:15.641Z,17.07
2019-04-27T00:07:04.810Z,17.97
2019-04-27T00:09:56.031Z,18.43
2019-04-27T00:12:42.900Z,19.70
2019-04-27T00:15:40.263Z,18.40
2019-04-27T00:18:45.517Z,20.80
2019-04-27T00:22:02.721Z,19.03
2019-04-27T00:24:49.331Z,21.43
2019-04-27T00:27:35.316Z,19.73
2019-04-27T00:30:23.381Z,18.27
2019-04-27T00:33:09.578Z,18.83
2019-04-27T00:36:02.925Z,19.57
2019-04-27T00:39:01.753Z,19.37
2019-04-27T00:41:48.179Z,20.97
2019-04-27T00:44:34.352Z,18.93
2019-04-27T00:47:20.640Z,18.53
2019-04-27T00:50:07.488Z,16.47
2019-04-27T00:52:53.851Z,17.30
2019-04-27T00:55:55.168Z,20.77
2019-04-27T00:58:48.320Z,19.73
2019-04-27T01:01:39.904Z,18.07
2019-04-27T01:04:28.648Z,18.13
2019-04-27T01:07:14.742Z,18.93
2019-04-27T01:10:03.005Z,20.57
2019-04-27T01:12:49.398Z,21.23
2019-04-27T01:15:35.663Z,18.17
2019-04-27T01:18:22.088Z,17.33
2019-04-27T01:21:09.221Z,18.00
2019-04-27T01:23:55.514Z,19.23
2019-04-27T01:26:56.309Z,18.70
2019-04-27T01:29:42.515Z,20.67
2019-04-27T01:32:29.281Z,21.57
2019-04-27T01:35:15.755Z,17.50
2019-04-27T01:38:02.086Z,16.97
2019-04-27T01:40:49.806Z,17.20
2019-04-27T01:43:36.307Z,18.53
2019-04-27T01:46:22.676Z,19.10
2019-04-27T01:49:09.250Z,21.37
2019-04-27T01:51:55.530Z,18.70
2019-04-27T01:54:41.796Z,18.43
2019-04-27T01:57:29.498Z,18.30
2019-04-27T02:00:40.684Z,16.97
2019-04-27T02:03:38.704Z,15.97
2019-04-27T02:06:26.088Z,17.47
2019-04-27T02:09:14.952Z,20.03
2019-04-27T02:12:01.376Z,17.27
2019-04-27T02:14:49.062Z,18.17
2019-04-27T02:17:35.327Z,18.77
2019-04-27T02:20:21.793Z,17.63
2019-04-27T02:23:09.159Z,18.67
2019-04-27T02:25:55.551Z,19.40
2019-04-27T02:28:50.716Z,17.90
2019-04-27T02:31:56.228Z,18.17
2019-04-27T02:34:50.612Z,19.67
2019-04-27T02:37:36.688Z,18.03
2019-04-27T02:40:50.659Z,18.40
2019-04-27T02:43:50.827Z,19.27
2019-04-27T02:46:39.311Z,19.80
2019-04-27T02:49:25.425Z,17.07
2019-04-27T02:52:26.724Z,20.33
2019-04-27T02:55:12.920Z,19.07
2019-04-27T02:57:59.959Z,20.13
2019-04-27T03:00:46.202Z,18.73
2019-04-27T03:03:32.551Z,18.93
2019-04-27T03:06:19.891Z,19.23
2019-04-27T03:09:06.636Z,20.13
2019-04-27T03:11:52.655Z,18.33
2019-04-27T03:14:54.889Z,18.73
2019-04-27T03:18:01.778Z,17.90
2019-04-27T03:20:51.792Z,17.93
2019-04-27T03:23:37.556Z,18.23
2019-04-27T03:26:32.573Z,21.73
2019-04-27T03:29:20.218Z,15.53
2019-04-27T03:32:06.302Z,20.47
2019-04-27T03:34:52.855Z,18.17
2019-04-27T03:37:40.431Z,18.03
2019-04-27T03:40:26.906Z,20.83
2019-04-27T03:43:19.983Z,19.77
2019-04-27T03:46:06.096Z,16.63
2019-04-27T03:48:52.608Z,18.10
2019-04-27T03:51:54.828Z,20.73
2019-04-27T03:54:50.150Z,20.43
2019-04-27T03:57:46.419Z,20.87
2019-04-27T04:00:33.015Z,22.30
2019-04-27T04:03:20.320Z,19.27
2019-04-27T04:06:06.448Z,19.90
2019-04-27T04:08:55.111Z,19.53
2019-04-27T04:11:53.337Z,20.60
2019-04-27T04:14:42.386Z,17.30
2019-04-27T04:17:30.448Z,17.73
2019-04-27T04:20:15.740Z,19.17
2019-04-27T04:23:03.252Z,18.63
2019-04-27T04:25:50.235Z,16.67
2019-04-27T04:28:36.185Z,16.33
2019-04-27T04:31:22.531Z,16.53
2019-04-27T04:34:11.544Z,18.47
2019-04-27T04:36:56.474Z,16.67
2019-04-27T04:39:42.703Z,19.67
2019-04-27T04:42:40.643Z,17.40
2019-04-27T04:45:44.804Z,17.27
2019-04-27T04:48:31.172Z,16.30
2019-04-27T04:51:19.978Z,17.17
2019-04-27T04:54:05.432Z,17.07
2019-04-27T04:56:51.660Z,18.17
2019-04-27T04:59:38.948Z,16.13
2019-04-27T05:02:25.488Z,15.90
2019-04-27T05:05:15.852Z,15.83
2019-04-27T05:08:02.246Z,17.07
2019-04-27T05:10:49.910Z,15.37
2019-04-27T05:13:36.051Z,17.03
2019-04-27T05:16:22.343Z,15.97
2019-04-27T05:19:11.109Z,16.90
2019-04-27T05:21:56.344Z,13.87
2019-04-27T05:24:42.295Z,16.73
2019-04-27T05:27:29.113Z,19.80
2019-04-27T05:30:14.823Z,14.53
2019-04-27T05:33:00.772Z,13.80
2019-04-27T05:35:46.456Z,18.80
2019-04-27T05:38:32.351Z,14.60
2019-04-27T05:41:18.697Z,16.90
2019-04-27T05:44:19.039Z,14.73
2019-04-27T05:47:30.672Z,16.23
2019-04-27T05:50:21.705Z,14.53
2019-04-27T05:53:05.100Z,16.87
2019-04-27T05:55:51.606Z,19.43
2019-04-27T05:58:39.074Z,13.73
2019-04-27T06:01:25.455Z,15.47
2019-04-27T06:04:11.923Z,15.10
2019-04-27T06:06:58.811Z,16.73
2019-04-27T06:09:45.400Z,14.43
2019-04-27T06:12:31.845Z,13.87
2019-04-27T06:15:17.658Z,13.27
2019-04-27T06:18:03.642Z,15.87
2019-04-27T06:20:55.348Z,13.83
2019-04-27T06:23:39.035Z,12.57
2019-04-27T06:26:25.677Z,12.73
2019-04-27T06:29:11.671Z,13.83
2019-04-27T06:31:59.211Z,15.33
2019-04-27T06:34:45.336Z,13.40
2019-04-27T06:37:31.309Z,13.00
2019-04-27T06:40:18.757Z,13.20
2019-04-27T06:43:04.968Z,12.80
2019-04-27T06:45:51.311Z,13.33
2019-04-27T06:48:39.363Z,13.07
2019-04-27T06:51:25.380Z,14.20
2019-04-27T06:54:11.910Z,13.57
2019-04-27T06:56:59.193Z,15.93
2019-04-27T06:59:45.456Z,13.50
2019-04-27T07:02:31.487Z,13.50
2019-04-27T07:05:18.558Z,12.23
2019-04-27T07:08:05.099Z,13.03
2019-04-27T07:10:51.059Z,13.13
2019-04-27T07:13:38.978Z,11.63
2019-04-27T07:16:25.340Z,16.90
2019-04-27T07:19:11.145Z,12.33
2019-04-27T07:21:59.391Z,11.80
2019-04-27T07:24:45.763Z,11.50
2019-04-27T07:27:32.406Z,13.57
2019-04-27T07:30:19.033Z,12.27
2019-04-27T07:33:05.339Z,13.33
2019-04-27T07:35:51.729Z,12.87
2019-04-27T07:38:39.489Z,11.80
2019-04-27T07:41:29.066Z,12.10
2019-04-27T07:44:34.810Z,14.77
2019-04-27T07:47:25.749Z,17.10
2019-04-27T07:50:12.098Z,13.20
2019-04-27T07:52:58.745Z,12.23
2019-04-27T07:55:45.227Z,15.80
2019-04-27T07:58:31.299Z,12.40
2019-04-27T08:01:17.039Z,13.07
2019-04-27T08:04:02.974Z,13.07
2019-04-27T08:06:49.638Z,15.20
2019-04-27T08:09:35.579Z,13.27
2019-04-27T08:12:21.900Z,14.77
2019-04-27T08:15:08.911Z,14.53
2019-04-27T08:17:55.368Z,12.77
2019-04-27T08:20:41.357Z,11.97
2019-04-27T08:23:29.350Z,13.10
2019-04-27T08:26:23.008Z,14.23
2019-04-27T08:29:32.945Z,13.03
2019-04-27T08:32:22.231Z,13.23
2019-04-27T08:35:09.532Z,11.17
2019-04-27T08:37:56.164Z,12.40
2019-04-27T08:40:42.691Z,15.20
2019-04-27T08:43:29.075Z,13.33
2019-04-27T08:46:15.207Z,12.00
2019-04-27T08:49:01.087Z,15.30
2019-04-27T08:51:57.128Z,14.50
2019-04-27T08:54:35.343Z,12.80
2019-04-27T08:57:21.380Z,13.60
2019-04-27T09:00:09.282Z,15.20
2019-04-27T09:02:55.755Z,12.17
2019-04-27T09:05:42.224Z,13.20
2019-04-27T09:08:43.214Z,11.63
2019-04-27T09:11:39.433Z,11.77
2019-04-27T09:14:44.890Z,11.73
2019-04-27T09:17:34.619Z,14.03
2019-04-27T09:20:33.563Z,12.63
2019-04-27T09:23:19.671Z,13.90
2019-04-27T09:26:06.009Z,11.57
2019-04-27T09:28:51.945Z,11.83
2019-04-27T09:31:39.444Z,14.10
2019-04-27T09:34:26.127Z,11.97
2019-04-27T09:37:12.559Z,15.97
2019-04-27T09:39:58.359Z,11.87
2019-04-27T09:42:46.364Z,11.60
2019-04-27T09:45:32.755Z,11.00
2019-04-27T09:48:18.964Z,11.30
2019-04-27T09:51:06.415Z,10.53
2019-04-27T09:53:52.683Z,10.97
2019-04-27T09:56:38.847Z,14.13
2019-04-27T09:59:26.443Z,14.67
2019-04-27T10:02:12.628Z,10.93
2019-04-27T10:04:58.380Z,12.93
2019-04-27T10:07:46.003Z,13.87
2019-04-27T10:10:32.242Z,15.53
2019-04-27T10:13:18.077Z,13.53
2019-04-27T10:16:04.575Z,13.57
2019-04-27T10:18:50.885Z,10.27
2019-04-27T10:21:37.291Z,11.00
2019-04-27T10:24:25.826Z,12.50
2019-04-27T10:27:12.099Z,11.40
2019-04-27T10:29:58.497Z,11.53
2019-04-27T10:32:46.173Z,13.70
2019-04-27T10:35:32.695Z,12.67
2019-04-27T10:38:18.545Z,11.00
2019-04-27T10:41:05.713Z,11.97
2019-04-27T10:43:52.419Z,12.10
2019-04-27T10:46:38.839Z,12.47
2019-04-27T10:49:25.087Z,10.50
2019-04-27T10:52:11.539Z,17.53
2019-04-27T10:54:58.113Z,13.73
2019-04-27T10:57:44.284Z,11.63
2019-04-27T11:00:36.787Z,10.93
2019-04-27T11:03:55.506Z,11.17
2019-04-27T11:06:45.299Z,11.83
2019-04-27T11:09:31.652Z,13.93
2019-04-27T11:12:18.001Z,11.93
2019-04-27T11:15:07.583Z,12.67
2019-04-27T11:18:02.700Z,11.50
2019-04-27T11:20:49.576Z,11.83
2019-04-27T11:23:35.986Z,12.53
2019-04-27T11:26:22.387Z,12.67
2019-04-27T11:29:08.191Z,11.37
2019-04-27T11:31:55.620Z,12.70
2019-04-27T11:35:02.776Z,12.83
2019-04-27T11:37:49.411Z,13.10
2019-04-27T11:40:36.459Z,11.87
2019-04-27T11:43:23.508Z,12.27
2019-04-27T11:46:09.783Z,11.83
2019-04-27T11:48:57.974Z,12.50
2019-04-27T11:51:43.584Z,11.57
2019-04-27T11:54:29.444Z,11.93
2019-04-27T11:57:15.842Z,15.57
2019-04-27T12:00:02.134Z,11.33
2019-04-27T12:02:48.612Z,19.27
2019-04-27T12:05:36.125Z,11.83
2019-04-27T12:08:22.358Z,11.53
2019-04-27T12:11:08.884Z,12.63
2019-04-27T12:13:56.132Z,14.43
2019-04-27T12:16:43.714Z,11.67
2019-04-27T12:19:29.936Z,10.90
2019-04-27T12:22:16.447Z,10.17
2019-04-27T12:25:03.347Z,14.13
2019-04-27T12:28:18.283Z,13.30
2019-04-27T12:31:11.499Z,10.97
2019-04-27T12:33:57.344Z,15.37
2019-04-27T12:36:43.299Z,9.90
2019-04-27T12:39:29.371Z,12.10
2019-04-27T12:42:16.068Z,15.03
2019-04-27T12:45:02.255Z,12.07
2019-04-27T12:47:48.589Z,11.57
2019-04-27T12:50:36.157Z,12.67
2019-04-27T12:53:29.289Z,27.30
2019-04-27T12:56:29.682Z,27.83
2019-04-27T12:59:34.012Z,30.27
2019-04-27T13:02:21.900Z,11.27
2019-04-27T13:05:08.095Z,11.33
2019-04-27T13:07:54.393Z,13.03
2019-04-27T13:10:40.579Z,10.70
2019-04-27T13:13:27.070Z,10.90
2019-04-27T13:16:13.687Z,12.63
2019-04-27T13:18:59.840Z,11.03
2019-04-27T13:21:46.962Z,10.43
2019-04-27T13:24:33.300Z,10.83
2019-04-27T13:27:19.658Z,13.17
2019-04-27T13:30:07.868Z,9.70
2019-04-27T13:32:56.120Z,12.10
2019-04-27T13:35:42.136Z,11.47
2019-04-27T13:38:28.379Z,12.77
2019-04-27T13:41:26.260Z,12.70
2019-04-27T13:44:03.247Z,12.07
2019-04-27T13:47:07.790Z,11.80
2019-04-27T13:50:15.151Z,9.47
2019-04-27T13:53:01.503Z,10.80
2019-04-27T13:55:48.533Z,12.27
2019-04-27T13:58:34.937Z,11.30
2019-04-27T14:01:21.275Z,12.87
2019-04-27T14:04:07.228Z,10.40
2019-04-27T14:06:53.504Z,12.50
2019-04-27T14:09:39.519Z,13.93
2019-04-27T14:12:25.859Z,9.67
2019-04-27T14:15:12.448Z,9.40
2019-04-27T14:17:59.170Z,10.23
2019-04-27T14:20:45.544Z,10.97
2019-04-27T14:23:32.980Z,12.00
2019-04-27T14:26:19.144Z,10.50
2019-04-27T14:29:05.516Z,9.43
2019-04-27T14:31:51.963Z,11.37
2019-04-27T14:34:38.384Z,12.10
2019-04-27T14:37:24.687Z,14.17
2019-04-27T14:40:10.868Z,13.93
2019-04-27T14:42:58.931Z,12.70
2019-04-27T14:45:45.567Z,12.60
2019-04-27T14:48:31.504Z,9.77
2019-04-27T14:51:18.722Z,9.83
2019-04-27T14:54:05.369Z,11.70
2019-04-27T14:56:51.682Z,13.10
2019-04-27T14:59:38.467Z,9.40
2019-04-27T15:02:24.637Z,10.07
2019-04-27T15:05:10.935Z,9.83
2019-04-27T15:07:57.409Z,11.60
2019-04-27T15:10:43.776Z,14.50
2019-04-27T15:13:30.310Z,13.57
2019-04-27T15:16:16.528Z,10.67
2019-04-27T15:19:06.439Z,10.63
2019-04-27T15:21:58.548Z,10.17
2019-04-27T15:24:41.693Z,11.30
2019-04-27T15:27:37.407Z,10.53
2019-04-27T15:30:28.011Z,10.03
2019-04-27T15:33:33.809Z,12.90
2019-04-27T15:36:46.375Z,13.67
2019-04-27T15:39:50.647Z,10.33
2019-04-27T15:42:51.215Z,10.00
2019-04-27T15:45:31.961Z,10.70
2019-04-27T15:48:20.257Z,11.77
2019-04-27T15:51:15.646Z,13.40
2019-04-27T15:53:54.057Z,11.63
2019-04-27T15:56:40.191Z,12.23
2019-04-27T15:59:30.967Z,13.90
2019-04-27T16:02:15.693Z,11.23
2019-04-27T16:05:02.252Z,13.13
2019-04-27T16:07:48.680Z,11.30
2019-04-27T16:10:37.286Z,10.20
2019-04-27T16:13:26.489Z,12.70
2019-04-27T16:16:10.762Z,10.33
2019-04-27T16:18:57.669Z,10.93
2019-04-27T16:21:47.042Z,12.50
2019-04-27T16:24:32.859Z,16.10
2019-04-27T16:27:20.100Z,10.43
2019-04-27T16:30:11.492Z,10.20
2019-04-27T16:32:54.465Z,12.20
2019-04-27T16:35:40.713Z,11.00
2019-04-27T16:38:34.633Z,10.53
2019-04-27T16:41:19.934Z,14.50
2019-04-27T16:44:06.815Z,10.70
2019-04-27T16:46:53.763Z,11.73
2019-04-27T16:49:40.026Z,12.93
2019-04-27T16:52:27.980Z,10.53
2019-04-27T16:55:13.728Z,9.83
2019-04-27T16:58:00.049Z,10.40
2019-04-27T17:00:47.953Z,10.97
2019-04-27T17:03:35.816Z,10.57
2019-04-27T17:06:22.295Z,9.83
2019-04-27T17:09:11.324Z,10.83
2019-04-27T17:11:56.749Z,9.77
2019-04-27T17:14:54.138Z,12.57
2019-04-27T17:17:50.834Z,12.37
2019-04-27T17:20:38.218Z,11.03
2019-04-27T17:23:29.030Z,10.63
2019-04-27T17:26:21.788Z,11.00
2019-04-27T17:29:16.139Z,12.07
2019-04-27T17:32:00.139Z,12.97
2019-04-27T17:34:46.251Z,11.87
2019-04-27T17:37:33.857Z,12.33
2019-04-27T17:40:20.481Z,13.47
2019-04-27T17:43:09.897Z,11.70
2019-04-27T17:45:54.657Z,11.80
2019-04-27T17:48:40.976Z,11.93
2019-04-27T17:51:28.577Z,11.57
2019-04-27T17:54:15.137Z,11.27
2019-04-27T17:57:01.525Z,11.13
2019-04-27T17:59:51.249Z,10.80
2019-04-27T18:02:38.917Z,13.00
2019-04-27T18:05:23.522Z,10.87
2019-04-27T18:08:09.439Z,12.47
2019-04-27T18:11:00.182Z,10.70
2019-04-27T18:13:42.980Z,15.10
2019-04-27T18:16:34.027Z,12.20
2019-04-27T18:19:36.243Z,11.87
2019-04-27T18:22:22.358Z,10.33
2019-04-27T18:25:09.656Z,11.83
2019-04-27T18:28:14.686Z,10.60
2019-04-27T18:31:04.164Z,10.47
2019-04-27T18:33:50.100Z,10.20
2019-04-27T18:36:37.927Z,11.23
2019-04-27T18:39:24.415Z,10.77
2019-04-27T18:42:10.614Z,11.10
2019-04-27T18:45:06.227Z,13.40
2019-04-27T18:47:48.099Z,12.37
2019-04-27T18:50:43.628Z,11.37
2019-04-27T18:53:28.949Z,14.13
2019-04-27T18:56:15.192Z,11.97
2019-04-27T18:59:01.427Z,11.63
2019-04-27T19:01:48.932Z,12.00
2019-04-27T19:04:35.099Z,9.83
2019-04-27T19:07:21.532Z,12.57
2019-04-27T19:10:08.958Z,11.07
2019-04-27T19:12:55.050Z,12.37
2019-04-27T19:15:41.343Z,9.93
2019-04-27T19:18:27.746Z,12.87
2019-04-27T19:21:13.892Z,11.47
2019-04-27T19:23:59.841Z,13.40
2019-04-27T19:26:58.777Z,12.63
2019-04-27T19:29:54.544Z,9.87
2019-04-27T19:32:40.680Z,12.87
2019-04-27T19:35:28.678Z,11.33
2019-04-27T19:38:15.098Z,10.50
2019-04-27T19:41:00.869Z,9.93
2019-04-27T19:43:48.849Z,12.23
2019-04-27T19:46:35.184Z,12.10
2019-04-27T19:49:21.530Z,12.00
2019-04-27T19:52:08.697Z,10.50
2019-04-27T19:54:55.547Z,11.57
2019-04-27T19:57:42.126Z,11.63
2019-04-27T20:00:48.469Z,11.20
2019-04-27T20:03:40.136Z,11.53
2019-04-27T20:06:26.319Z,9.67
2019-04-27T20:09:33.681Z,13.43
2019-04-27T20:12:21.322Z,12.97
2019-04-27T20:15:07.520Z,11.28
2019-04-27T20:17:53.777Z,10.73
2019-04-27T20:20:40.224Z,10.70
2019-04-27T20:23:26.554Z,12.63
2019-04-27T20:26:12.938Z,10.10
2019-04-27T20:29:01.404Z,11.30
2019-04-27T20:31:47.268Z,10.90
2019-04-27T20:34:33.663Z,12.27
2019-04-27T20:37:21.061Z,15.53
2019-04-27T20:40:07.599Z,12.17
2019-04-27T20:42:53.733Z,9.80
2019-04-27T20:45:41.337Z,10.90
2019-04-27T20:48:27.847Z,12.73
2019-04-27T20:51:14.478Z,11.70
2019-04-27T20:54:01.770Z,11.50
2019-04-27T20:56:47.942Z,11.80
2019-04-27T20:59:34.248Z,11.07
2019-04-27T21:02:48.745Z,12.23
2019-04-27T21:05:57.729Z,12.30
2019-04-27T21:08:43.859Z,13.23
2019-04-27T21:11:46.336Z,11.47
2019-04-27T21:14:32.199Z,11.33
2019-04-27T21:17:18.608Z,10.90
2019-04-27T21:20:04.915Z,10.43
2019-04-27T21:22:53.325Z,11.67
2019-04-27T21:25:38.919Z,11.93
2019-04-27T21:28:24.853Z,17.80
2019-04-27T21:31:12.743Z,25.33
2019-04-27T21:33:59.119Z,14.90
2019-04-27T21:36:45.488Z,15.10
2019-04-27T21:39:31.949Z,14.03
2019-04-27T21:42:18.528Z,15.30
2019-04-27T21:45:05.004Z,14.37
2019-04-27T21:47:51.905Z,12.53
2019-04-27T21:50:38.019Z,13.57
2019-04-27T21:53:36.012Z,12.50
2019-04-27T21:56:22.015Z,16.17
2019-04-27T21:59:08.443Z,12.83
2019-04-27T22:01:56.119Z,12.40
2019-04-27T22:04:42.181Z,15.07
2019-04-27T22:07:28.509Z,11.90
2019-04-27T22:10:14.799Z,11.77
2019-04-27T22:13:01.914Z,13.07
2019-04-27T22:15:48.349Z,11.83
2019-04-27T22:18:34.579Z,10.53
2019-04-27T22:21:21.593Z,14.03
2019-04-27T22:24:25.003Z,13.07
2019-04-27T22:27:10.890Z,11.60
2019-04-27T22:29:57.280Z,14.73
2019-04-27T22:32:43.762Z,13.80
2019-04-27T22:35:31.312Z,15.23
2019-04-27T22:38:17.743Z,13.13
2019-04-27T22:41:21.939Z,13.47
2019-04-27T22:44:31.723Z,13.57
2019-04-27T22:47:17.974Z,12.50
2019-04-27T22:50:04.165Z,13.40
2019-04-27T22:52:50.481Z,13.73
2019-04-27T22:55:38.669Z,16.17
2019-04-27T22:58:24.653Z,14.33
2019-04-27T23:01:21.253Z,14.77
2019-04-27T23:04:08.295Z,14.53
2019-04-27T23:06:54.153Z,12.83
2019-04-27T23:09:40.760Z,13.87
2019-04-27T23:12:28.423Z,16.13
2019-04-27T23:15:18.248Z,14.30
2019-04-27T23:18:04.451Z,13.40
2019-04-27T23:20:52.222Z,15.80
2019-04-27T23:23:37.979Z,14.70
2019-04-27T23:26:23.896Z,14.30
2019-04-27T23:29:13.617Z,14.73
2019-04-27T23:32:03.839Z,14.80
2019-04-27T23:34:51.339Z,15.03
2019-04-27T23:37:37.763Z,16.40
2019-04-27T23:40:24.080Z,15.63
2019-04-27T23:43:11.521Z,15.00
2019-04-27T23:45:58.434Z,14.70
2019-04-27T23:48:44.704Z,13.57
2019-04-27T23:51:43.512Z,16.63
2019-04-27T23:54:29.436Z,14.07
2019-04-27T23:57:15.681Z,15.70
